Time;durP1;ratioP1;P1;durP2;ratioP2;P2;SDS_P1;SDS_P2;PMS_P1;PMS_P2;Temp;Humidity;BMP_temperature;BMP_pressure;BME280_temperature;BME280_humidity;BME280_pressure;Samples;Min_cycle;Max_cycle;Signal;HPM_P1;HPM_P2
2021/05/27 00:00:26;;;;;;;7.90;3.40;;;10.50;99.90;;;;;;5085939;28;20305;-57
2021/05/27 00:02:56;;;;;;;9.07;3.77;;;10.40;99.90;;;;;;5084306;28;20240;-56
2021/05/27 00:05:25;;;;;;;7.10;2.87;;;10.50;99.90;;;;;;5066036;28;20241;-56
2021/05/27 00:07:53;;;;;;;5.83;3.37;;;10.50;99.90;;;;;;5065562;28;20802;-55
2021/05/27 00:10:24;;;;;;;9.57;3.53;;;10.40;99.90;;;;;;5065439;28;20234;-58
2021/05/27 00:12:53;;;;;;;8.73;2.93;;;10.40;99.90;;;;;;5064489;28;20235;-57
2021/05/27 00:15:23;;;;;;;9.77;3.30;;;10.40;99.90;;;;;;5066029;28;20671;-57
2021/05/27 00:17:51;;;;;;;6.30;3.23;;;10.40;99.90;;;;;;5066528;28;20249;-58
2021/05/27 00:20:22;;;;;;;5.83;3.23;;;10.40;99.90;;;;;;5068401;28;20247;-56
2021/05/27 00:22:50;;;;;;;8.57;3.73;;;10.40;99.90;;;;;;5088893;28;20308;-56
2021/05/27 00:25:19;;;;;;;6.63;3.00;;;10.40;99.90;;;;;;5068932;28;20236;-58
2021/05/27 00:27:49;;;;;;;8.70;3.00;;;10.40;99.90;;;;;;5061207;28;20320;-57
2021/05/27 00:30:18;;;;;;;7.23;2.90;;;10.40;99.90;;;;;;5065877;28;20764;-58
2021/05/27 00:32:48;;;;;;;7.07;2.93;;;10.40;99.90;;;;;;5068069;28;20272;-56
2021/05/27 00:35:17;;;;;;;5.97;2.93;;;10.40;99.90;;;;;;5068163;28;20736;-56
2021/05/27 00:37:46;;;;;;;9.00;3.30;;;10.40;99.90;;;;;;5049054;28;20236;-56
2021/05/27 00:40:16;;;;;;;8.47;2.73;;;10.40;99.90;;;;;;5066146;28;20649;-55
2021/05/27 00:42:45;;;;;;;6.60;3.00;;;10.40;99.90;;;;;;5046637;28;20839;-55
2021/05/27 00:45:16;;;;;;;6.93;3.13;;;10.40;99.90;;;;;;5064599;28;20607;-56
2021/05/27 00:47:44;;;;;;;4.97;2.90;;;10.40;99.90;;;;;;5067589;28;20692;-57
2021/05/27 00:50:20;;;;;;;4.53;2.40;;;10.40;99.90;;;;;;5067918;28;20232;-57
2021/05/27 00:52:50;;;;;;;8.37;2.30;;;10.40;99.90;;;;;;5067179;28;20235;-55
2021/05/27 00:55:20;;;;;;;6.23;2.23;;;10.40;99.90;;;;;;5068934;28;20264;-55
2021/05/27 00:57:50;;;;;;;6.23;2.37;;;10.30;99.90;;;;;;5064321;28;20250;-57
2021/05/27 01:00:22;;;;;;;6.27;2.07;;;10.40;99.90;;;;;;5047020;28;20295;-57
2021/05/27 01:02:50;;;;;;;7.07;2.40;;;10.30;99.90;;;;;;5067031;28;20523;-55
2021/05/27 01:05:18;;;;;;;6.63;2.67;;;10.30;99.90;;;;;;5066957;28;20247;-57
2021/05/27 01:07:47;;;;;;;6.20;2.40;;;10.40;99.90;;;;;;5071847;28;20629;-57
2021/05/27 01:10:21;;;;;;;7.77;2.70;;;10.30;99.90;;;;;;5095919;27;20240;-57
2021/05/27 01:12:50;;;;;;;8.03;2.73;;;10.30;99.90;;;;;;5102451;27;20322;-54
2021/05/27 01:15:29;;;;;;;7.23;3.07;;;10.30;99.90;;;;;;5094321;27;20774;-57
2021/05/27 01:17:59;;;;;;;6.70;3.17;;;10.30;99.90;;;;;;5069558;28;20230;-56
2021/05/27 01:20:27;;;;;;;7.90;3.43;;;10.30;99.90;;;;;;5070415;28;20679;-56
2021/05/27 01:22:55;;;;;;;7.10;3.03;;;10.40;99.90;;;;;;5087363;28;20234;-56
2021/05/27 01:25:23;;;;;;;7.50;3.03;;;10.30;99.90;;;;;;5080164;28;20238;-56
2021/05/27 01:27:51;;;;;;;6.50;2.63;;;10.30;99.90;;;;;;5104497;28;20594;-54
2021/05/27 01:30:19;;;;;;;12.57;3.47;;;10.30;99.90;;;;;;5086890;28;20236;-55
2021/05/27 01:32:48;;;;;;;12.03;3.33;;;10.30;99.90;;;;;;5069630;28;20227;-57
2021/05/27 01:35:18;;;;;;;10.23;3.10;;;10.30;99.90;;;;;;5097501;27;20226;-55
2021/05/27 01:37:47;;;;;;;9.17;2.70;;;10.30;99.90;;;;;;5066842;28;20244;-57
2021/05/27 01:40:19;;;;;;;11.73;4.23;;;10.20;99.90;;;;;;5067498;28;20239;-56
2021/05/27 01:42:47;;;;;;;8.33;3.40;;;10.30;99.90;;;;;;5076195;28;20279;-57
2021/05/27 01:45:15;;;;;;;10.80;3.43;;;10.30;99.90;;;;;;5087294;28;20771;-56
2021/05/27 01:47:43;;;;;;;8.20;2.40;;;10.20;99.90;;;;;;5087485;28;20241;-57
2021/05/27 01:50:20;;;;;;;8.67;2.90;;;10.20;99.90;;;;;;5086245;28;20626;-56
2021/05/27 01:52:51;;;;;;;10.53;3.07;;;10.20;99.90;;;;;;5086907;28;20257;-57
2021/05/27 01:55:20;;;;;;;6.17;2.70;;;10.20;99.90;;;;;;5087949;28;21371;-55
2021/05/27 01:57:48;;;;;;;9.23;3.33;;;10.20;99.90;;;;;;5093190;27;20577;-56
2021/05/27 02:00:18;;;;;;;7.83;2.37;;;10.20;99.90;;;;;;5098791;27;20227;-56
2021/05/27 02:02:57;;;;;;;8.53;2.33;;;10.20;99.90;;;;;;5053785;28;20230;-57
2021/05/27 02:05:30;;;;;;;8.37;2.40;;;10.10;99.90;;;;;;5086925;28;20231;-56
2021/05/27 02:08:01;;;;;;;5.87;2.03;;;10.10;99.90;;;;;;5085706;28;20231;-56
2021/05/27 02:10:41;;;;;;;6.43;2.20;;;10.10;99.90;;;;;;5085415;28;20230;-56
2021/05/27 02:13:09;;;;;;;5.63;1.87;;;10.10;99.90;;;;;;5085559;28;20233;-57
2021/05/27 02:15:39;;;;;;;4.27;2.07;;;10.10;99.90;;;;;;5086481;28;20258;-57
2021/05/27 02:18:08;;;;;;;3.77;1.80;;;10.10;99.90;;;;;;5086450;28;20393;-57
2021/05/27 02:20:38;;;;;;;6.97;1.83;;;10.10;99.90;;;;;;5084424;28;20227;-56
2021/05/27 02:23:06;;;;;;;4.00;1.97;;;10.10;99.90;;;;;;5085633;28;20811;-56
2021/05/27 02:25:46;;;;;;;5.23;1.77;;;10.00;99.90;;;;;;5084445;28;20230;-56
2021/05/27 02:28:32;;;;;;;6.40;1.93;;;10.00;99.90;;;;;;5087903;28;20235;-57
2021/05/27 02:31:01;;;;;;;5.80;1.63;;;10.00;99.90;;;;;;5095153;28;20263;-56
2021/05/27 02:33:34;;;;;;;4.70;1.47;;;10.00;99.90;;;;;;5085663;28;20231;-56
2021/05/27 02:36:14;;;;;;;3.97;1.50;;;10.00;99.90;;;;;;5085791;28;20239;-57
2021/05/27 02:38:43;;;;;;;7.47;1.60;;;9.90;99.90;;;;;;5086220;28;20238;-57
2021/05/27 02:41:14;;;;;;;3.37;1.20;;;9.90;99.90;;;;;;5085724;28;20291;-55
2021/05/27 02:43:42;;;;;;;2.50;1.10;;;9.90;99.90;;;;;;5084496;28;20247;-56
2021/05/27 02:46:13;;;;;;;4.10;1.20;;;9.90;99.90;;;;;;5085037;28;20231;-56
2021/05/27 02:48:54;;;;;;;3.40;1.30;;;9.80;99.90;;;;;;5087450;28;20241;-58
2021/05/27 02:51:22;;;;;;;3.50;1.10;;;9.80;99.90;;;;;;5085921;28;20240;-56
2021/05/27 02:53:50;;;;;;;3.47;1.13;;;9.70;99.90;;;;;;5086805;28;20321;-55
2021/05/27 02:56:20;;;;;;;2.60;1.10;;;9.70;99.90;;;;;;5085400;28;20235;-56
2021/05/27 02:58:54;;;;;;;2.27;1.30;;;9.70;99.90;;;;;;5092840;28;20240;-55
2021/05/27 03:01:22;;;;;;;2.73;1.50;;;9.70;99.90;;;;;;5087672;28;20246;-56
2021/05/27 03:03:52;;;;;;;3.17;1.20;;;9.80;99.90;;;;;;5085760;28;20245;-57
2021/05/27 03:06:20;;;;;;;2.53;1.30;;;9.70;99.90;;;;;;5086267;28;20325;-56
2021/05/27 03:08:51;;;;;;;1.63;1.10;;;9.70;99.90;;;;;;5087705;28;20230;-56
2021/05/27 03:11:22;;;;;;;3.50;1.40;;;9.80;99.90;;;;;;5085438;28;20249;-56
2021/05/27 03:13:55;;;;;;;4.73;1.50;;;9.80;99.90;;;;;;5084222;28;20279;-57
2021/05/27 03:16:25;;;;;;;4.53;2.00;;;9.80;99.90;;;;;;5101387;28;20231;-57
2021/05/27 03:18:54;;;;;;;4.70;2.00;;;9.80;99.90;;;;;;5086333;28;20257;-55
2021/05/27 03:21:25;;;;;;;8.57;2.23;;;9.80;99.90;;;;;;5085824;28;20729;-56
2021/05/27 03:23:53;;;;;;;5.13;1.90;;;9.80;99.90;;;;;;5128529;27;20244;-56
2021/05/27 03:26:24;;;;;;;4.43;1.77;;;9.90;99.90;;;;;;5093586;28;20234;-55
2021/05/27 03:28:53;;;;;;;4.63;1.93;;;9.90;99.90;;;;;;5084680;28;20238;-57
2021/05/27 03:31:22;;;;;;;6.00;2.60;;;9.80;99.90;;;;;;5084409;28;20230;-57
2021/05/27 03:33:54;;;;;;;5.57;1.90;;;9.80;99.90;;;;;;5084692;28;20321;-55
2021/05/27 03:36:21;;;;;;;5.90;2.10;;;9.90;99.90;;;;;;5086435;28;20238;-57
2021/05/27 03:38:51;;;;;;;3.70;1.80;;;9.80;99.90;;;;;;5086412;28;20310;-56
2021/05/27 03:41:20;;;;;;;5.80;2.37;;;9.90;99.90;;;;;;5086189;28;20713;-58
2021/05/27 03:43:49;;;;;;;5.83;2.30;;;9.90;99.90;;;;;;5084725;28;20234;-57
2021/05/27 03:46:18;;;;;;;8.40;2.43;;;9.90;99.90;;;;;;5093140;28;20273;-55
2021/05/27 03:48:46;;;;;;;6.30;2.30;;;9.90;99.90;;;;;;5086920;28;20239;-57
2021/05/27 03:51:14;;;;;;;7.17;2.57;;;9.90;99.90;;;;;;5086953;28;20234;-55
2021/05/27 03:53:42;;;;;;;6.63;2.40;;;9.90;99.90;;;;;;5094544;28;20761;-55
2021/05/27 03:56:10;;;;;;;5.47;2.30;;;10.00;99.90;;;;;;5094627;27;20238;-58
2021/05/27 04:01:48;;;;;;;7.67;2.50;;;10.00;99.90;;;;;;5088814;28;20249;-58
2021/05/27 04:07:15;;;;;;;8.03;2.40;;;10.00;99.90;;;;;;5068622;28;20237;-57
2021/05/27 04:09:42;;;;;;;6.13;2.40;;;10.00;99.90;;;;;;5070278;28;20236;-55
2021/05/27 04:17:44;;;;;;;8.93;2.57;;;10.00;99.90;;;;;;5069397;28;20241;-56
2021/05/27 04:20:12;;;;;;;6.43;2.70;;;10.00;99.90;;;;;;5069379;28;20294;-54
2021/05/27 04:22:41;;;;;;;7.20;2.40;;;10.00;99.90;;;;;;5069567;28;20265;-57
2021/05/27 04:25:10;;;;;;;7.80;2.80;;;10.00;99.90;;;;;;5069584;28;20329;-56
2021/05/27 04:27:38;;;;;;;11.33;2.83;;;10.00;99.90;;;;;;5089410;28;20218;-57
2021/05/27 04:30:15;;;;;;;8.17;2.33;;;10.00;99.90;;;;;;5089940;28;20718;-56
2021/05/27 04:32:56;;;;;;;7.90;3.27;;;10.00;99.90;;;;;;5087562;28;20277;-57
2021/05/27 04:35:36;;;;;;;6.77;2.90;;;10.00;99.90;;;;;;5067436;28;20267;-57
2021/05/27 04:38:07;;;;;;;8.53;2.50;;;10.00;99.90;;;;;;5069783;28;20227;-57
2021/05/27 04:40:36;;;;;;;6.90;2.67;;;10.00;99.90;;;;;;5079932;28;20234;-55
2021/05/27 04:43:04;;;;;;;6.10;2.70;;;10.00;99.90;;;;;;5084638;28;20230;-56
2021/05/27 04:45:32;;;;;;;8.03;3.07;;;10.00;99.90;;;;;;5070301;28;20231;-57
2021/05/27 04:48:04;;;;;;;6.60;2.77;;;10.00;99.90;;;;;;5085716;28;20235;-57
2021/05/27 04:50:32;;;;;;;6.60;2.63;;;10.10;99.90;;;;;;5068834;28;20241;-56
2021/05/27 04:53:00;;;;;;;5.93;2.90;;;10.00;99.90;;;;;;5068261;28;20622;-57
2021/05/27 04:55:28;;;;;;;7.70;3.10;;;10.00;99.90;;;;;;5066049;28;20239;-56
2021/05/27 04:57:55;;;;;;;6.97;3.07;;;10.00;99.90;;;;;;5071853;28;20267;-56
2021/05/27 05:00:25;;;;;;;6.60;2.90;;;10.00;99.90;;;;;;5066750;28;20446;-57
2021/05/27 05:02:53;;;;;;;7.07;2.60;;;10.40;99.90;;;;;;5087117;28;20664;-57
2021/05/27 05:05:23;;;;;;;7.53;2.63;;;10.30;99.90;;;;;;5076554;28;20237;-57
2021/05/27 05:07:51;;;;;;;6.80;2.33;;;10.30;99.90;;;;;;5067521;28;20571;-57
2021/05/27 05:10:20;;;;;;;5.13;2.10;;;10.30;99.90;;;;;;5067812;28;20267;-57
2021/05/27 05:12:49;;;;;;;4.80;2.33;;;10.20;99.90;;;;;;5066530;28;20234;-57
2021/05/27 05:18:59;;;;;;;4.50;1.90;;;10.20;99.90;;;;;;5067853;28;20278;-57
2021/05/27 05:21:28;;;;;;;4.77;2.27;;;10.20;99.90;;;;;;5058628;28;20236;-57
2021/05/27 05:23:58;;;;;;;5.00;2.03;;;10.20;99.90;;;;;;5066523;28;20638;-56
2021/05/27 05:26:25;;;;;;;5.17;1.87;;;10.30;99.90;;;;;;5066301;28;20286;-57
2021/05/27 05:28:53;;;;;;;3.97;1.93;;;10.20;99.90;;;;;;5086816;28;20229;-57
2021/05/27 05:31:21;;;;;;;3.67;1.83;;;10.30;99.90;;;;;;5086690;28;20810;-58
2021/05/27 05:33:48;;;;;;;3.17;1.60;;;10.30;99.90;;;;;;5089388;27;20231;-58
2021/05/27 05:36:16;;;;;;;2.93;1.80;;;10.30;99.90;;;;;;5086293;28;20578;-57
2021/05/27 05:38:44;;;;;;;4.03;1.80;;;10.30;99.90;;;;;;5087472;28;20234;-57
2021/05/27 05:41:12;;;;;;;4.17;2.07;;;10.30;99.90;;;;;;5087102;28;20234;-57
2021/05/27 05:43:40;;;;;;;3.10;1.80;;;10.30;99.90;;;;;;5085491;28;20266;-56
2021/05/27 05:46:08;;;;;;;2.93;1.50;;;10.30;99.90;;;;;;5086495;28;20231;-57
2021/05/27 05:48:36;;;;;;;2.53;1.70;;;10.30;99.90;;;;;;5086517;28;20238;-58
2021/05/27 05:51:05;;;;;;;4.60;1.67;;;10.30;99.90;;;;;;5086161;28;20242;-56
2021/05/27 05:53:32;;;;;;;4.20;1.80;;;10.30;99.90;;;;;;5090264;27;20238;-57
2021/05/27 05:56:02;;;;;;;5.00;1.80;;;10.30;99.90;;;;;;5093183;27;20238;-57
2021/05/27 05:58:29;;;;;;;4.17;1.80;;;10.40;99.90;;;;;;5088009;28;20765;-58
2021/05/27 06:00:57;;;;;;;2.67;1.60;;;10.40;99.90;;;;;;5087169;28;20247;-58
2021/05/27 06:03:27;;;;;;;2.93;1.80;;;10.40;99.90;;;;;;5085812;28;20260;-58
2021/05/27 06:05:55;;;;;;;3.90;2.10;;;10.50;99.90;;;;;;5087642;28;20280;-58
2021/05/27 06:08:49;;;;;;;2.90;1.70;;;10.40;99.90;;;;;;5083961;28;20433;-57
2021/05/27 06:11:18;;;;;;;4.30;2.00;;;10.50;99.90;;;;;;5086456;28;20582;-56
2021/05/27 06:13:46;;;;;;;2.93;2.07;;;10.50;99.90;;;;;;5083500;28;20711;-58
2021/05/27 06:16:14;;;;;;;4.20;2.13;;;10.50;99.90;;;;;;5087137;28;20697;-57
2021/05/27 06:18:42;;;;;;;6.23;2.63;;;10.50;99.90;;;;;;5088160;28;20313;-58
2021/05/27 06:21:30;;;;;;;4.27;2.60;;;10.50;99.90;;;;;;5085669;28;20597;-56
2021/05/27 06:24:00;;;;;;;5.90;2.67;;;10.50;99.90;;;;;;5085707;28;20652;-57
2021/05/27 06:26:30;;;;;;;7.23;3.27;;;10.60;99.90;;;;;;5087667;28;20319;-57
2021/05/27 06:28:57;;;;;;;6.93;3.43;;;10.60;99.90;;;;;;5103199;27;20548;-58
2021/05/27 06:31:26;;;;;;;5.37;2.97;;;10.60;99.90;;;;;;5092639;27;20237;-59
2021/05/27 06:33:55;;;;;;;5.73;3.03;;;10.70;99.90;;;;;;5087224;28;20233;-59
2021/05/27 06:36:22;;;;;;;8.77;3.77;;;10.70;99.90;;;;;;5074267;28;20592;-60
2021/05/27 06:38:53;;;;;;;7.63;3.57;;;10.70;99.90;;;;;;5082324;28;20814;-60
2021/05/27 06:41:21;;;;;;;6.70;3.60;;;10.80;99.90;;;;;;5068841;28;20730;-60
2021/05/27 06:43:50;;;;;;;9.13;3.83;;;10.80;99.90;;;;;;5069567;28;20238;-60
2021/05/27 06:46:19;;;;;;;8.53;4.10;;;10.90;99.90;;;;;;5085844;28;20599;-59
2021/05/27 06:48:46;;;;;;;8.73;3.53;;;10.90;99.90;;;;;;5085624;28;20234;-60
2021/05/27 06:51:14;;;;;;;6.27;3.70;;;10.90;99.90;;;;;;5083086;28;20236;-59
2021/05/27 06:53:41;;;;;;;10.47;3.70;;;10.90;99.90;;;;;;5086049;28;20240;-60
2021/05/27 06:56:17;;;;;;;11.83;3.80;;;11.00;99.90;;;;;;5085489;28;20242;-60
2021/05/27 06:58:45;;;;;;;7.67;3.30;;;11.10;99.90;;;;;;5087402;28;20714;-60
2021/05/27 07:01:13;;;;;;;8.60;3.20;;;11.20;99.90;;;;;;5086542;28;20230;-59
2021/05/27 07:03:41;;;;;;;9.27;3.47;;;11.20;99.90;;;;;;5086550;28;20243;-59
2021/05/27 07:06:09;;;;;;;7.23;3.20;;;11.30;99.90;;;;;;5086876;28;20707;-60
2021/05/27 07:08:39;;;;;;;9.70;3.70;;;11.40;99.90;;;;;;5086294;28;20239;-60
2021/05/27 07:11:06;;;;;;;8.90;3.57;;;11.60;99.90;;;;;;5059874;28;20232;-59
2021/05/27 07:13:34;;;;;;;10.67;3.80;;;11.70;99.90;;;;;;5075171;28;20231;-60
2021/05/27 07:16:02;;;;;;;12.03;3.67;;;11.70;99.90;;;;;;5067736;28;20331;-59
2021/05/27 07:18:31;;;;;;;10.33;3.87;;;11.70;99.90;;;;;;5070016;28;20686;-60
2021/05/27 07:21:03;;;;;;;8.07;3.30;;;11.60;99.90;;;;;;5066168;28;20582;-59
2021/05/27 07:23:31;;;;;;;9.53;3.60;;;11.60;99.90;;;;;;5065913;28;20651;-60
2021/05/27 07:26:01;;;;;;;9.43;3.70;;;11.60;99.90;;;;;;5066839;28;20240;-60
2021/05/27 07:28:29;;;;;;;12.50;3.27;;;11.50;99.90;;;;;;5070383;28;20242;-57
2021/05/27 07:30:56;;;;;;;9.77;3.40;;;11.50;99.90;;;;;;5083177;28;20287;-59
2021/05/27 07:33:24;;;;;;;10.13;3.43;;;11.60;99.90;;;;;;5070385;28;20239;-59
2021/05/27 07:35:53;;;;;;;9.37;3.53;;;11.70;99.90;;;;;;5084142;28;20778;-59
2021/05/27 07:38:20;;;;;;;6.17;2.67;;;11.70;99.90;;;;;;5070306;28;20230;-60
2021/05/27 07:40:48;;;;;;;9.60;3.30;;;11.70;99.90;;;;;;5070499;28;20250;-60
2021/05/27 07:43:16;;;;;;;5.20;2.57;;;11.60;99.90;;;;;;5072743;28;22140;-60
2021/05/27 07:45:44;;;;;;;7.33;3.00;;;11.60;99.90;;;;;;5087197;28;20471;-60
2021/05/27 07:48:11;;;;;;;8.07;3.03;;;11.70;99.90;;;;;;5087775;28;20580;-60
2021/05/27 07:50:39;;;;;;;5.93;2.80;;;11.70;99.90;;;;;;5085939;28;20708;-60
2021/05/27 07:53:09;;;;;;;6.03;2.43;;;11.60;99.90;;;;;;5087305;28;20316;-60
2021/05/27 07:55:37;;;;;;;6.07;2.60;;;11.60;99.90;;;;;;5083604;28;20317;-60
2021/05/27 07:58:05;;;;;;;8.30;2.80;;;11.60;99.90;;;;;;5090321;28;20235;-59
2021/05/27 08:00:33;;;;;;;10.40;3.33;;;11.60;99.90;;;;;;5090402;28;20236;-60
2021/05/27 08:03:00;;;;;;;10.47;3.20;;;11.60;99.90;;;;;;5090036;28;20236;-58
2021/05/27 08:05:28;;;;;;;6.83;2.80;;;11.70;99.90;;;;;;5089094;28;20233;-57
2021/05/27 08:07:56;;;;;;;4.87;2.33;;;11.70;99.90;;;;;;5088779;28;20259;-58
2021/05/27 08:10:25;;;;;;;8.03;2.50;;;11.70;99.90;;;;;;5089351;28;20252;-60
2021/05/27 08:12:53;;;;;;;7.87;2.70;;;11.70;99.90;;;;;;5085243;28;20236;-60
2021/05/27 08:15:20;;;;;;;7.20;2.43;;;11.50;99.90;;;;;;5089164;28;20238;-61
2021/05/27 08:17:48;;;;;;;11.03;2.37;;;11.50;99.90;;;;;;5089424;28;20237;-60
2021/05/27 08:20:16;;;;;;;7.47;2.27;;;11.50;99.90;;;;;;5090013;28;20743;-60
2021/05/27 08:22:46;;;;;;;5.53;3.00;;;11.50;99.90;;;;;;5070601;28;20356;-59
2021/05/27 08:25:14;;;;;;;4.47;1.73;;;11.60;99.90;;;;;;5088271;28;20242;-59
2021/05/27 08:27:42;;;;;;;8.03;2.30;;;11.70;99.90;;;;;;5089372;28;20232;-59
2021/05/27 08:30:12;;;;;;;6.40;2.20;;;11.80;99.90;;;;;;5089584;28;20333;-59
2021/05/27 08:32:39;;;;;;;3.30;1.93;;;11.90;99.90;;;;;;5089862;28;20275;-59
2021/05/27 08:35:08;;;;;;;3.87;1.80;;;12.00;99.90;;;;;;5088947;28;20292;-60
2021/05/27 08:37:36;;;;;;;5.50;1.70;;;12.00;99.90;;;;;;5089407;28;20322;-60
2021/05/27 08:40:05;;;;;;;5.07;1.93;;;12.20;99.90;;;;;;5090163;28;20248;-60
2021/05/27 08:42:35;;;;;;;5.50;2.00;;;12.30;99.90;;;;;;5090509;28;20244;-59
2021/05/27 08:45:07;;;;;;;5.87;2.03;;;12.30;99.90;;;;;;5089604;28;20242;-59
2021/05/27 08:47:36;;;;;;;4.80;1.63;;;12.30;99.90;;;;;;5088128;28;20337;-60
2021/05/27 08:50:05;;;;;;;5.30;2.03;;;12.30;99.90;;;;;;5089322;28;20240;-59
2021/05/27 08:52:33;;;;;;;7.43;2.13;;;12.40;99.90;;;;;;5087552;28;20243;-58
2021/05/27 08:55:01;;;;;;;5.67;2.33;;;12.50;99.90;;;;;;5067219;28;20233;-59
2021/05/27 08:57:30;;;;;;;4.50;1.90;;;12.60;99.90;;;;;;5085681;28;20312;-59
2021/05/27 08:59:57;;;;;;;5.67;1.83;;;12.70;99.90;;;;;;5087195;28;20226;-58
2021/05/27 09:02:26;;;;;;;5.23;1.70;;;12.80;99.90;;;;;;5087799;28;20678;-58
2021/05/27 09:04:54;;;;;;;5.43;1.90;;;12.90;99.90;;;;;;5081319;28;20318;-59
2021/05/27 09:07:41;;;;;;;5.03;2.03;;;12.90;99.90;;;;;;5085897;28;20316;-59
2021/05/27 09:10:10;;;;;;;6.07;2.00;;;12.90;99.90;;;;;;5064541;28;20233;-59
2021/05/27 09:12:38;;;;;;;7.03;2.13;;;12.70;99.90;;;;;;5079336;28;20233;-59
2021/05/27 09:15:19;;;;;;;7.00;2.00;;;12.70;99.90;;;;;;5085361;27;20291;-60
2021/05/27 09:17:50;;;;;;;3.83;1.73;;;12.80;99.90;;;;;;5067630;28;20779;-58
2021/05/27 09:20:21;;;;;;;5.30;2.17;;;13.00;99.90;;;;;;5067937;28;20258;-59
2021/05/27 09:23:07;;;;;;;3.10;1.93;;;13.20;99.90;;;;;;5066470;28;20702;-59
2021/05/27 09:25:36;;;;;;;5.37;2.00;;;13.40;99.90;;;;;;5065890;28;20245;-62
2021/05/27 09:28:05;;;;;;;4.50;2.17;;;13.60;99.90;;;;;;5066729;28;20239;-59
2021/05/27 09:30:43;;;;;;;4.43;2.17;;;13.80;99.90;;;;;;5067001;28;20288;-60
2021/05/27 09:33:12;;;;;;;6.03;1.97;;;14.10;99.90;;;;;;5067289;28;20237;-60
2021/05/27 09:35:40;;;;;;;6.43;1.80;;;14.70;99.90;;;;;;5049693;28;21594;-60
2021/05/27 09:38:09;;;;;;;5.33;2.00;;;15.50;99.90;;;;;;5068056;28;20315;-59
2021/05/27 09:40:40;;;;;;;6.47;1.70;;;15.30;99.90;;;;;;5068257;28;20248;-60
2021/05/27 09:43:10;;;;;;;4.37;1.80;;;15.00;99.90;;;;;;5067100;28;20239;-60
2021/05/27 09:45:40;;;;;;;6.13;2.10;;;14.60;99.90;;;;;;5067891;28;20357;-60
2021/05/27 09:48:19;;;;;;;6.07;2.17;;;14.30;99.90;;;;;;5068101;28;20609;-60
2021/05/27 09:50:48;;;;;;;4.07;1.90;;;14.30;99.90;;;;;;5066879;28;20256;-60
2021/05/27 09:53:19;;;;;;;5.70;2.00;;;14.10;99.90;;;;;;5067409;28;20234;-60
2021/05/27 09:55:47;;;;;;;4.93;2.23;;;14.00;99.90;;;;;;5060640;28;20773;-60
2021/05/27 09:58:16;;;;;;;4.53;2.07;;;14.00;99.90;;;;;;5068083;28;20249;-59
2021/05/27 10:00:45;;;;;;;4.90;1.70;;;13.90;99.90;;;;;;5066714;28;20250;-59
2021/05/27 10:03:39;;;;;;;6.13;1.93;;;13.60;99.90;;;;;;5067424;28;20233;-59
2021/05/27 10:06:09;;;;;;;3.13;1.63;;;13.20;99.90;;;;;;5057816;28;20245;-60
2021/05/27 10:08:52;;;;;;;6.63;2.20;;;13.10;99.90;;;;;;5067359;28;20343;-60
2021/05/27 10:11:22;;;;;;;4.27;2.00;;;13.00;99.90;;;;;;5067071;28;20251;-59
2021/05/27 10:13:50;;;;;;;6.43;2.33;;;12.90;99.90;;;;;;5066979;28;20326;-59
2021/05/27 10:16:20;;;;;;;7.77;2.70;;;13.00;99.90;;;;;;5066039;28;20313;-60
2021/05/27 10:18:51;;;;;;;8.60;2.77;;;13.10;99.90;;;;;;5059941;28;20319;-60
2021/05/27 10:21:19;;;;;;;7.27;2.93;;;13.10;99.90;;;;;;5065999;28;20241;-60
2021/05/27 10:23:50;;;;;;;5.37;2.50;;;13.10;99.90;;;;;;5060043;28;20249;-60
2021/05/27 10:26:18;;;;;;;9.17;2.87;;;13.20;99.90;;;;;;5067258;28;20324;-60
2021/05/27 10:29:06;;;;;;;8.57;2.80;;;13.30;99.90;;;;;;5055381;28;20243;-61
2021/05/27 10:31:42;;;;;;;8.60;3.03;;;13.30;99.90;;;;;;5057971;28;20238;-60
2021/05/27 10:34:41;;;;;;;7.47;2.60;;;13.60;99.90;;;;;;5066149;28;20234;-60
2021/05/27 10:37:08;;;;;;;5.90;2.57;;;13.90;99.90;;;;;;5086288;28;20312;-60
2021/05/27 10:39:39;;;;;;;6.23;2.30;;;14.00;99.90;;;;;;5086912;28;20229;-59
2021/05/27 10:42:07;;;;;;;4.53;2.40;;;13.90;99.90;;;;;;5086156;28;20749;-61
2021/05/27 10:44:54;;;;;;;4.63;2.43;;;13.80;99.90;;;;;;5066455;28;20235;-58
2021/05/27 10:47:22;;;;;;;6.10;2.57;;;13.90;99.90;;;;;;5085428;28;20283;-59
2021/05/27 10:49:52;;;;;;;6.57;2.73;;;13.90;99.90;;;;;;5086765;28;20732;-59
2021/05/27 10:52:51;;;;;;;7.03;3.27;;;13.90;99.90;;;;;;5085731;28;20244;-59
2021/05/27 10:55:54;;;;;;;5.67;3.23;;;13.80;99.90;;;;;;5097154;27;20291;-59
2021/05/27 10:59:10;;;;;;;6.57;3.17;;;13.70;99.90;;;;;;5078340;28;20627;-60
2021/05/27 11:01:54;;;;;;;5.10;2.60;;;13.60;99.90;;;;;;5085565;28;20232;-59
2021/05/27 11:04:25;;;;;;;7.37;3.10;;;13.60;99.90;;;;;;5079844;28;20295;-58
2021/05/27 11:07:17;;;;;;;8.30;2.43;;;13.30;99.90;;;;;;5081877;28;20236;-59
2021/05/27 11:09:47;;;;;;;2.30;1.40;;;12.80;99.90;;;;;;5063400;28;20253;-60
2021/05/27 11:12:20;;;;;;;2.80;1.30;;;12.50;99.90;;;;;;5060365;28;20269;-60
2021/05/27 11:15:17;;;;;;;2.53;1.10;;;12.50;99.90;;;;;;5054584;28;20249;-60
2021/05/27 11:18:01;;;;;;;1.77;1.00;;;12.40;99.90;;;;;;5078456;28;20489;-60
2021/05/27 11:20:30;;;;;;;1.60;0.80;;;12.40;99.90;;;;;;5076042;28;20248;-59
2021/05/27 11:23:19;;;;;;;4.57;1.17;;;12.40;99.90;;;;;;5075766;28;20311;-61
2021/05/27 11:25:47;;;;;;;3.03;1.10;;;12.60;99.90;;;;;;5077138;28;20269;-58
2021/05/27 11:28:36;;;;;;;1.23;1.10;;;13.00;99.90;;;;;;5075940;28;20336;-59
2021/05/27 11:31:06;;;;;;;2.50;1.30;;;13.50;99.90;;;;;;5061369;28;20240;-60
2021/05/27 11:33:41;;;;;;;3.27;2.07;;;13.90;99.90;;;;;;5075088;28;20267;-60
2021/05/27 11:36:18;;;;;;;3.57;1.90;;;14.10;99.90;;;;;;5073377;28;20240;-60
2021/05/27 11:38:47;;;;;;;2.93;2.20;;;14.10;99.90;;;;;;5076257;28;20321;-60
2021/05/27 11:41:18;;;;;;;4.27;2.77;;;14.30;99.90;;;;;;5076788;28;20246;-60
2021/05/27 11:43:49;;;;;;;4.77;2.00;;;14.60;99.90;;;;;;5074911;28;20245;-60
2021/05/27 11:46:19;;;;;;;4.43;2.20;;;14.40;99.90;;;;;;5076468;28;21192;-60
2021/05/27 11:51:35;;;;;;;3.07;1.63;;;14.00;99.90;;;;;;5047654;28;20667;-59
2021/05/27 11:54:07;;;;;;;3.13;1.50;;;14.00;99.90;;;;;;5061509;28;20701;-60
2021/05/27 11:56:44;;;;;;;3.60;1.60;;;14.00;99.90;;;;;;5058299;28;20235;-60
2021/05/27 11:59:21;;;;;;;2.43;1.63;;;14.10;99.90;;;;;;5058592;28;20326;-60
2021/05/27 12:01:52;;;;;;;1.63;1.40;;;14.40;99.90;;;;;;5058681;28;20257;-60
2021/05/27 12:04:25;;;;;;;3.43;2.20;;;14.70;99.90;;;;;;5061681;28;20682;-60
2021/05/27 12:06:56;;;;;;;2.43;1.30;;;14.70;99.90;;;;;;5064141;28;20280;-60
2021/05/27 12:09:30;;;;;;;2.40;1.40;;;14.60;99.90;;;;;;5065106;28;20242;-60
2021/05/27 12:12:11;;;;;;;3.50;1.20;;;14.40;99.90;;;;;;5024313;28;20239;-60
2021/05/27 12:14:48;;;;;;;3.03;1.73;;;14.20;99.90;;;;;;5026086;28;20236;-59
2021/05/27 12:17:23;;;;;;;1.83;1.40;;;14.00;99.90;;;;;;5026697;28;20645;-58
2021/05/27 12:19:53;;;;;;;3.23;1.53;;;13.90;99.90;;;;;;5026304;28;20254;-60
2021/05/27 12:22:22;;;;;;;3.43;1.83;;;13.90;99.90;;;;;;5036670;28;20266;-60
2021/05/27 12:27:45;;;;;;;4.03;1.60;;;13.90;99.90;;;;;;5105361;27;20681;-61
2021/05/27 12:30:18;;;;;;;3.53;2.17;;;13.80;99.90;;;;;;5119701;27;20221;-60
2021/05/27 12:32:47;;;;;;;4.60;2.10;;;13.60;99.90;;;;;;5103156;27;20245;-59
2021/05/27 12:35:20;;;;;;;2.77;2.03;;;13.50;99.90;;;;;;5118272;27;20316;-60
2021/05/27 12:37:48;;;;;;;2.00;1.80;;;13.40;99.90;;;;;;5123263;27;20244;-59
2021/05/27 12:40:24;;;;;;;3.20;2.00;;;13.30;99.90;;;;;;5111860;27;20231;-60
2021/05/27 12:42:56;;;;;;;3.00;2.13;;;13.30;99.90;;;;;;5113959;27;20264;-61
2021/05/27 12:45:33;;;;;;;3.57;2.03;;;13.30;99.90;;;;;;5113896;27;20285;-61
2021/05/27 12:48:06;;;;;;;2.53;1.80;;;13.30;99.90;;;;;;5112137;27;20592;-60
2021/05/27 12:50:36;;;;;;;2.20;1.50;;;13.40;99.90;;;;;;5113856;27;20240;-60
2021/05/27 12:53:04;;;;;;;6.83;2.33;;;13.30;99.90;;;;;;5114407;27;20240;-60
2021/05/27 12:55:34;;;;;;;3.23;1.93;;;13.30;99.90;;;;;;5109380;27;20308;-60
2021/05/27 12:58:06;;;;;;;3.83;2.33;;;13.40;99.90;;;;;;5114081;27;20227;-61
2021/05/27 13:00:46;;;;;;;3.13;1.90;;;13.30;99.90;;;;;;5113502;27;20239;-59
2021/05/27 13:03:14;;;;;;;2.90;2.23;;;13.30;99.90;;;;;;5113817;27;20223;-61
2021/05/27 13:05:41;;;;;;;2.87;2.17;;;13.20;99.90;;;;;;5110661;27;20236;-61
2021/05/27 13:08:12;;;;;;;3.73;1.93;;;13.20;99.90;;;;;;5110714;27;20514;-59
2021/05/27 13:10:40;;;;;;;4.67;2.20;;;13.10;99.90;;;;;;5112485;27;20342;-59
2021/05/27 13:13:09;;;;;;;5.17;2.40;;;13.20;99.90;;;;;;5109579;27;20244;-61
2021/05/27 13:15:42;;;;;;;3.97;2.20;;;13.20;99.90;;;;;;5098539;28;20232;-61
2021/05/27 13:18:12;;;;;;;4.90;2.20;;;13.30;99.90;;;;;;5090037;28;20237;-60
2021/05/27 13:20:59;;;;;;;4.43;2.60;;;13.30;99.90;;;;;;5095174;28;20282;-61
2021/05/27 13:23:30;;;;;;;5.40;2.30;;;13.50;99.90;;;;;;5100472;28;20630;-60
2021/05/27 13:26:12;;;;;;;4.50;2.40;;;13.50;99.90;;;;;;5092489;28;20660;-61
2021/05/27 13:28:41;;;;;;;5.60;2.60;;;13.60;99.90;;;;;;5099719;28;20650;-60